sensor_id;sensor_type;location;lat;lon;timestamp;temperature;humidity
44435;DHT22;30138;20.964;105.830;2023-05-10T00:04:45;28.00;99.90
44435;DHT22;30138;20.964;105.830;2023-05-10T00:09:52;28.00;99.90
44435;DHT22;30138;20.964;105.830;2023-05-10T00:14:58;28.00;99.90
44435;DHT22;30138;20.964;105.830;2023-05-10T00:20:08;28.00;99.90
44435;DHT22;30138;20.964;105.830;2023-05-10T00:25:15;28.00;99.90
44435;DHT22;30138;20.964;105.830;2023-05-10T00:30:24;28.00;99.90
44435;DHT22;30138;20.964;105.830;2023-05-10T00:35:33;28.00;99.90
44435;DHT22;30138;20.964;105.830;2023-05-10T00:40:40;28.00;99.90
44435;DHT22;30138;20.964;105.830;2023-05-10T00:45:54;28.00;99.90
44435;DHT22;30138;20.964;105.830;2023-05-10T00:51:03;28.00;99.90
44435;DHT22;30138;20.964;105.830;2023-05-10T00:56:10;28.00;99.90
44435;DHT22;30138;20.964;105.830;2023-05-10T01:01:16;28.00;99.90
44435;DHT22;30138;20.964;105.830;2023-05-10T01:06:25;28.00;99.90
44435;DHT22;30138;20.964;105.830;2023-05-10T01:11:32;28.00;99.90
44435;DHT22;30138;20.964;105.830;2023-05-10T01:16:39;28.00;99.90
44435;DHT22;30138;20.964;105.830;2023-05-10T01:21:53;28.00;99.90
44435;DHT22;30138;20.964;105.830;2023-05-10T01:27:18;28.00;99.90
44435;DHT22;30138;20.964;105.830;2023-05-10T01:32:37;28.00;99.90
44435;DHT22;30138;20.964;105.830;2023-05-10T01:37:56;28.00;99.90
44435;DHT22;30138;20.964;105.830;2023-05-10T01:43:22;28.00;99.90
44435;DHT22;30138;20.964;105.830;2023-05-10T01:48:34;28.00;99.90
44435;DHT22;30138;20.964;105.830;2023-05-10T01:53:42;28.00;99.90
44435;DHT22;30138;20.964;105.830;2023-05-10T01:58:49;28.00;99.90
44435;DHT22;30138;20.964;105.830;2023-05-10T02:03:59;28.00;99.90
44435;DHT22;30138;20.964;105.830;2023-05-10T02:09:07;28.00;99.90
44435;DHT22;30138;20.964;105.830;2023-05-10T02:14:16;28.10;99.90
44435;DHT22;30138;20.964;105.830;2023-05-10T02:19:27;28.10;99.90
44435;DHT22;30138;20.964;105.830;2023-05-10T02:24:36;28.10;99.90
44435;DHT22;30138;20.964;105.830;2023-05-10T02:29:44;28.10;99.90
44435;DHT22;30138;20.964;105.830;2023-05-10T02:34:53;28.10;99.90
44435;DHT22;30138;20.964;105.830;2023-05-10T02:40:01;28.10;99.90
44435;DHT22;30138;20.964;105.830;2023-05-10T02:45:10;28.20;99.90
44435;DHT22;30138;20.964;105.830;2023-05-10T02:50:20;28.10;99.90
44435;DHT22;30138;20.964;105.830;2023-05-10T02:55:32;28.20;99.90
44435;DHT22;30138;20.964;105.830;2023-05-10T03:00:42;28.20;99.90
44435;DHT22;30138;20.964;105.830;2023-05-10T03:05:51;28.30;99.90
44435;DHT22;30138;20.964;105.830;2023-05-10T03:16:46;28.30;99.90
44435;DHT22;30138;20.964;105.830;2023-05-10T03:22:02;28.30;99.90
44435;DHT22;30138;20.964;105.830;2023-05-10T03:27:12;28.40;99.90
44435;DHT22;30138;20.964;105.830;2023-05-10T03:32:21;28.40;99.90
44435;DHT22;30138;20.964;105.830;2023-05-10T03:37:30;28.40;99.90
44435;DHT22;30138;20.964;105.830;2023-05-10T03:42:37;28.40;99.90
44435;DHT22;30138;20.964;105.830;2023-05-10T03:47:44;28.40;99.90
44435;DHT22;30138;20.964;105.830;2023-05-10T03:52:53;28.50;99.90
44435;DHT22;30138;20.964;105.830;2023-05-10T03:58:00;28.50;99.90
44435;DHT22;30138;20.964;105.830;2023-05-10T04:03:09;28.50;99.90
44435;DHT22;30138;20.964;105.830;2023-05-10T04:08:17;28.60;99.90
44435;DHT22;30138;20.964;105.830;2023-05-10T04:13:24;28.60;99.90
44435;DHT22;30138;20.964;105.830;2023-05-10T04:18:31;28.60;99.90
44435;DHT22;30138;20.964;105.830;2023-05-10T04:23:39;28.70;99.90
44435;DHT22;30138;20.964;105.830;2023-05-10T04:28:47;28.70;99.90
44435;DHT22;30138;20.964;105.830;2023-05-10T04:33:53;28.70;99.90
44435;DHT22;30138;20.964;105.830;2023-05-10T04:39:01;28.70;99.90
44435;DHT22;30138;20.964;105.830;2023-05-10T04:44:08;28.70;99.90
44435;DHT22;30138;20.964;105.830;2023-05-10T04:49:15;28.70;99.90
44435;DHT22;30138;20.964;105.830;2023-05-10T04:54:23;28.80;99.90
44435;DHT22;30138;20.964;105.830;2023-05-10T04:59:30;28.80;99.90
44435;DHT22;30138;20.964;105.830;2023-05-10T05:04:38;28.80;99.90
44435;DHT22;30138;20.964;105.830;2023-05-10T05:09:47;28.80;99.90
44435;DHT22;30138;20.964;105.830;2023-05-10T05:14:54;28.80;99.90
44435;DHT22;30138;20.964;105.830;2023-05-10T05:20:01;28.80;99.90
44435;DHT22;30138;20.964;105.830;2023-05-10T05:25:10;28.80;99.90
44435;DHT22;30138;20.964;105.830;2023-05-10T05:30:18;28.80;99.90
44435;DHT22;30138;20.964;105.830;2023-05-10T05:35:24;28.90;99.90
44435;DHT22;30138;20.964;105.830;2023-05-10T05:40:33;28.90;99.90
44435;DHT22;30138;20.964;105.830;2023-05-10T05:45:40;28.90;99.90
44435;DHT22;30138;20.964;105.830;2023-05-10T05:50:47;28.90;99.90
44435;DHT22;30138;20.964;105.830;2023-05-10T05:55:57;28.90;99.90
44435;DHT22;30138;20.964;105.830;2023-05-10T06:01:07;28.90;99.90
44435;DHT22;30138;20.964;105.830;2023-05-10T06:06:14;28.90;99.90
44435;DHT22;30138;20.964;105.830;2023-05-10T06:11:22;28.90;99.90
44435;DHT22;30138;20.964;105.830;2023-05-10T06:16:28;28.80;99.90
44435;DHT22;30138;20.964;105.830;2023-05-10T06:21:36;28.90;99.90
44435;DHT22;30138;20.964;105.830;2023-05-10T06:26:45;28.90;99.90
44435;DHT22;30138;20.964;105.830;2023-05-10T06:31:53;28.90;99.90
44435;DHT22;30138;20.964;105.830;2023-05-10T06:37:01;28.90;99.90
44435;DHT22;30138;20.964;105.830;2023-05-10T06:42:10;29.00;99.90
44435;DHT22;30138;20.964;105.830;2023-05-10T06:47:21;29.00;99.90
44435;DHT22;30138;20.964;105.830;2023-05-10T06:52:29;29.00;99.90
44435;DHT22;30138;20.964;105.830;2023-05-10T06:57:38;29.00;99.90
44435;DHT22;30138;20.964;105.830;2023-05-10T07:02:45;29.00;99.90
44435;DHT22;30138;20.964;105.830;2023-05-10T07:07:52;29.10;99.90
44435;DHT22;30138;20.964;105.830;2023-05-10T07:13:00;29.10;99.90
44435;DHT22;30138;20.964;105.830;2023-05-10T07:18:08;29.10;99.90
44435;DHT22;30138;20.964;105.830;2023-05-10T07:23:15;29.20;99.90
44435;DHT22;30138;20.964;105.830;2023-05-10T07:28:24;29.20;99.90
44435;DHT22;30138;20.964;105.830;2023-05-10T07:33:30;29.20;99.90
44435;DHT22;30138;20.964;105.830;2023-05-10T07:38:37;29.20;99.90
44435;DHT22;30138;20.964;105.830;2023-05-10T07:43:45;29.20;99.90
44435;DHT22;30138;20.964;105.830;2023-05-10T07:48:52;29.30;99.90
44435;DHT22;30138;20.964;105.830;2023-05-10T07:54:00;29.30;99.90
44435;DHT22;30138;20.964;105.830;2023-05-10T07:59:08;29.30;99.90
44435;DHT22;30138;20.964;105.830;2023-05-10T08:04:16;29.30;99.90
44435;DHT22;30138;20.964;105.830;2023-05-10T08:09:22;29.30;99.90
44435;DHT22;30138;20.964;105.830;2023-05-10T08:14:30;29.30;99.90
44435;DHT22;30138;20.964;105.830;2023-05-10T08:19:39;29.30;99.90
44435;DHT22;30138;20.964;105.830;2023-05-10T08:24:46;29.30;99.90
44435;DHT22;30138;20.964;105.830;2023-05-10T08:29:55;29.30;99.90
44435;DHT22;30138;20.964;105.830;2023-05-10T08:35:03;29.30;99.90
44435;DHT22;30138;20.964;105.830;2023-05-10T08:40:12;29.30;99.90
44435;DHT22;30138;20.964;105.830;2023-05-10T08:45:23;29.30;99.90
44435;DHT22;30138;20.964;105.830;2023-05-10T08:55:52;29.20;99.90
44435;DHT22;30138;20.964;105.830;2023-05-10T09:01:02;29.20;99.90
44435;DHT22;30138;20.964;105.830;2023-05-10T09:06:09;29.20;99.90
44435;DHT22;30138;20.964;105.830;2023-05-10T09:11:20;29.20;99.90
44435;DHT22;30138;20.964;105.830;2023-05-10T09:16:27;29.20;99.90
44435;DHT22;30138;20.964;105.830;2023-05-10T09:21:36;29.20;99.90
44435;DHT22;30138;20.964;105.830;2023-05-10T09:26:55;29.20;99.90
44435;DHT22;30138;20.964;105.830;2023-05-10T09:32:06;29.20;99.90
44435;DHT22;30138;20.964;105.830;2023-05-10T09:37:36;29.20;99.90
44435;DHT22;30138;20.964;105.830;2023-05-10T09:43:04;29.20;99.90
44435;DHT22;30138;20.964;105.830;2023-05-10T09:48:46;29.20;99.90
44435;DHT22;30138;20.964;105.830;2023-05-10T09:54:19;29.20;99.90
44435;DHT22;30138;20.964;105.830;2023-05-10T09:59:57;29.20;99.90
44435;DHT22;30138;20.964;105.830;2023-05-10T10:05:32;29.30;99.90
44435;DHT22;30138;20.964;105.830;2023-05-10T10:10:41;29.20;99.90
44435;DHT22;30138;20.964;105.830;2023-05-10T10:15:55;29.20;99.90
44435;DHT22;30138;20.964;105.830;2023-05-10T10:21:02;29.20;99.90
44435;DHT22;30138;20.964;105.830;2023-05-10T10:26:15;29.20;99.90
44435;DHT22;30138;20.964;105.830;2023-05-10T10:31:46;29.30;99.90
44435;DHT22;30138;20.964;105.830;2023-05-10T10:37:16;29.20;99.90
44435;DHT22;30138;20.964;105.830;2023-05-10T10:42:48;29.20;99.90
44435;DHT22;30138;20.964;105.830;2023-05-10T10:48:22;29.30;99.90
44435;DHT22;30138;20.964;105.830;2023-05-10T10:53:29;29.20;99.90
44435;DHT22;30138;20.964;105.830;2023-05-10T10:58:36;29.30;99.90
44435;DHT22;30138;20.964;105.830;2023-05-10T11:04:19;29.30;99.90
44435;DHT22;30138;20.964;105.830;2023-05-10T11:09:41;29.20;99.90
44435;DHT22;30138;20.964;105.830;2023-05-10T11:15:00;29.30;99.90
44435;DHT22;30138;20.964;105.830;2023-05-10T11:20:18;29.30;99.90
44435;DHT22;30138;20.964;105.830;2023-05-10T11:25:52;29.20;99.90
44435;DHT22;30138;20.964;105.830;2023-05-10T11:31:21;29.20;99.90
44435;DHT22;30138;20.964;105.830;2023-05-10T11:36:46;29.30;99.90
44435;DHT22;30138;20.964;105.830;2023-05-10T11:41:58;29.20;99.90
44435;DHT22;30138;20.964;105.830;2023-05-10T11:47:06;29.30;99.90
44435;DHT22;30138;20.964;105.830;2023-05-10T11:52:20;29.30;99.90
44435;DHT22;30138;20.964;105.830;2023-05-10T11:57:35;29.30;99.90
44435;DHT22;30138;20.964;105.830;2023-05-10T12:02:48;29.20;99.90
44435;DHT22;30138;20.964;105.830;2023-05-10T12:08:21;29.30;99.90
44435;DHT22;30138;20.964;105.830;2023-05-10T12:13:29;29.30;99.90
44435;DHT22;30138;20.964;105.830;2023-05-10T12:18:40;29.30;99.90
44435;DHT22;30138;20.964;105.830;2023-05-10T12:23:50;29.20;99.90
44435;DHT22;30138;20.964;105.830;2023-05-10T12:29:16;29.30;99.90
44435;DHT22;30138;20.964;105.830;2023-05-10T12:34:30;29.30;99.90
44435;DHT22;30138;20.964;105.830;2023-05-10T12:39:48;29.20;99.90
44435;DHT22;30138;20.964;105.830;2023-05-10T12:45:12;29.20;99.90
44435;DHT22;30138;20.964;105.830;2023-05-10T12:50:51;29.20;99.90
44435;DHT22;30138;20.964;105.830;2023-05-10T12:56:03;29.20;99.90
44435;DHT22;30138;20.964;105.830;2023-05-10T13:01:19;29.20;99.90
44435;DHT22;30138;20.964;105.830;2023-05-10T13:06:25;29.20;99.90
44435;DHT22;30138;20.964;105.830;2023-05-10T13:11:34;29.20;99.90
44435;DHT22;30138;20.964;105.830;2023-05-10T13:16:41;29.20;99.90
44435;DHT22;30138;20.964;105.830;2023-05-10T13:21:49;29.20;99.90
44435;DHT22;30138;20.964;105.830;2023-05-10T13:26:58;29.30;99.90
44435;DHT22;30138;20.964;105.830;2023-05-10T13:32:06;29.20;99.90
44435;DHT22;30138;20.964;105.830;2023-05-10T13:37:13;29.20;99.90
44435;DHT22;30138;20.964;105.830;2023-05-10T13:42:23;29.20;99.90
44435;DHT22;30138;20.964;105.830;2023-05-10T13:47:30;29.20;99.90
44435;DHT22;30138;20.964;105.830;2023-05-10T13:52:37;29.20;99.90
44435;DHT22;30138;20.964;105.830;2023-05-10T13:58:05;29.20;99.90
44435;DHT22;30138;20.964;105.830;2023-05-10T14:03:19;29.20;99.90
44435;DHT22;30138;20.964;105.830;2023-05-10T14:08:34;29.30;99.90
44435;DHT22;30138;20.964;105.830;2023-05-10T14:13:42;29.20;99.90
44435;DHT22;30138;20.964;105.830;2023-05-10T14:18:49;29.20;99.90
44435;DHT22;30138;20.964;105.830;2023-05-10T14:24:01;29.20;99.90
44435;DHT22;30138;20.964;105.830;2023-05-10T14:29:16;29.20;99.90
44435;DHT22;30138;20.964;105.830;2023-05-10T14:34:29;29.20;99.90
44435;DHT22;30138;20.964;105.830;2023-05-10T14:39:36;29.20;99.90
44435;DHT22;30138;20.964;105.830;2023-05-10T14:44:45;29.30;99.90
44435;DHT22;30138;20.964;105.830;2023-05-10T14:49:52;29.20;99.90
44435;DHT22;30138;20.964;105.830;2023-05-10T14:55:09;29.20;99.90
44435;DHT22;30138;20.964;105.830;2023-05-10T15:00:18;29.20;99.90
44435;DHT22;30138;20.964;105.830;2023-05-10T15:05:28;29.20;99.90
44435;DHT22;30138;20.964;105.830;2023-05-10T15:10:36;29.20;99.90
44435;DHT22;30138;20.964;105.830;2023-05-10T15:15:53;29.20;99.90
44435;DHT22;30138;20.964;105.830;2023-05-10T15:21:00;29.20;99.90
44435;DHT22;30138;20.964;105.830;2023-05-10T15:26:07;29.20;99.90
44435;DHT22;30138;20.964;105.830;2023-05-10T15:31:16;29.20;99.90
44435;DHT22;30138;20.964;105.830;2023-05-10T15:36:31;29.20;99.90
44435;DHT22;30138;20.964;105.830;2023-05-10T15:41:38;29.20;99.90
44435;DHT22;30138;20.964;105.830;2023-05-10T15:46:51;29.20;99.90
44435;DHT22;30138;20.964;105.830;2023-05-10T15:52:06;29.20;99.90
44435;DHT22;30138;20.964;105.830;2023-05-10T15:57:13;29.20;99.90
44435;DHT22;30138;20.964;105.830;2023-05-10T16:02:24;29.20;99.90
44435;DHT22;30138;20.964;105.830;2023-05-10T16:07:31;29.20;99.90
44435;DHT22;30138;20.964;105.830;2023-05-10T16:12:38;29.20;99.90
44435;DHT22;30138;20.964;105.830;2023-05-10T16:17:59;29.20;99.90
44435;DHT22;30138;20.964;105.830;2023-05-10T16:23:10;29.20;99.90
44435;DHT22;30138;20.964;105.830;2023-05-10T16:28:37;29.20;99.90
44435;DHT22;30138;20.964;105.830;2023-05-10T16:33:48;29.20;99.90
44435;DHT22;30138;20.964;105.830;2023-05-10T16:39:09;29.20;99.90
44435;DHT22;30138;20.964;105.830;2023-05-10T16:45:08;29.20;99.90
44435;DHT22;30138;20.964;105.830;2023-05-10T16:50:24;29.20;99.90
44435;DHT22;30138;20.964;105.830;2023-05-10T16:55:30;29.20;99.90
44435;DHT22;30138;20.964;105.830;2023-05-10T17:00:38;29.20;99.90
44435;DHT22;30138;20.964;105.830;2023-05-10T17:05:48;29.20;99.90
44435;DHT22;30138;20.964;105.830;2023-05-10T17:10:55;29.20;99.90
44435;DHT22;30138;20.964;105.830;2023-05-10T17:16:03;29.20;99.90
44435;DHT22;30138;20.964;105.830;2023-05-10T17:21:12;29.20;99.90
44435;DHT22;30138;20.964;105.830;2023-05-10T17:26:18;29.20;99.90
44435;DHT22;30138;20.964;105.830;2023-05-10T17:31:25;29.20;99.90
44435;DHT22;30138;20.964;105.830;2023-05-10T17:36:33;29.20;99.90
44435;DHT22;30138;20.964;105.830;2023-05-10T17:41:41;29.20;99.90
44435;DHT22;30138;20.964;105.830;2023-05-10T17:46:50;29.20;99.90
44435;DHT22;30138;20.964;105.830;2023-05-10T17:51:58;29.20;99.90
44435;DHT22;30138;20.964;105.830;2023-05-10T17:57:06;29.20;99.90
44435;DHT22;30138;20.964;105.830;2023-05-10T18:02:13;29.20;99.90
44435;DHT22;30138;20.964;105.830;2023-05-10T18:07:22;29.10;99.90
44435;DHT22;30138;20.964;105.830;2023-05-10T18:12:29;29.10;99.90
44435;DHT22;30138;20.964;105.830;2023-05-10T18:17:35;29.10;99.90
44435;DHT22;30138;20.964;105.830;2023-05-10T18:22:43;29.10;99.90
44435;DHT22;30138;20.964;105.830;2023-05-10T18:27:50;29.10;99.90
44435;DHT22;30138;20.964;105.830;2023-05-10T18:32:56;29.10;99.90
44435;DHT22;30138;20.964;105.830;2023-05-10T18:38:05;29.10;99.90
44435;DHT22;30138;20.964;105.830;2023-05-10T18:43:13;29.10;99.90
44435;DHT22;30138;20.964;105.830;2023-05-10T18:48:19;29.10;99.90
44435;DHT22;30138;20.964;105.830;2023-05-10T18:53:28;29.10;99.90
44435;DHT22;30138;20.964;105.830;2023-05-10T18:58:35;29.10;99.90
44435;DHT22;30138;20.964;105.830;2023-05-10T19:03:42;29.10;99.90
44435;DHT22;30138;20.964;105.830;2023-05-10T19:08:52;29.10;99.90
44435;DHT22;30138;20.964;105.830;2023-05-10T19:13:58;29.00;99.90
44435;DHT22;30138;20.964;105.830;2023-05-10T19:19:05;29.00;99.90
44435;DHT22;30138;20.964;105.830;2023-05-10T19:24:14;29.10;99.90
44435;DHT22;30138;20.964;105.830;2023-05-10T19:29:25;29.10;99.90
44435;DHT22;30138;20.964;105.830;2023-05-10T19:34:31;29.10;99.90
44435;DHT22;30138;20.964;105.830;2023-05-10T19:39:40;29.00;99.90
44435;DHT22;30138;20.964;105.830;2023-05-10T19:44:47;29.10;99.90
44435;DHT22;30138;20.964;105.830;2023-05-10T19:49:54;29.00;99.90
44435;DHT22;30138;20.964;105.830;2023-05-10T19:55:03;29.00;99.90
44435;DHT22;30138;20.964;105.830;2023-05-10T20:00:12;29.00;99.90
44435;DHT22;30138;20.964;105.830;2023-05-10T20:05:19;29.00;99.90
44435;DHT22;30138;20.964;105.830;2023-05-10T20:10:29;29.00;99.90
44435;DHT22;30138;20.964;105.830;2023-05-10T20:15:36;29.00;99.90
44435;DHT22;30138;20.964;105.830;2023-05-10T20:20:42;29.00;99.90
44435;DHT22;30138;20.964;105.830;2023-05-10T20:25:50;29.10;99.90
44435;DHT22;30138;20.964;105.830;2023-05-10T20:31:03;29.00;99.90
44435;DHT22;30138;20.964;105.830;2023-05-10T20:36:19;29.00;99.90
44435;DHT22;30138;20.964;105.830;2023-05-10T20:41:27;29.00;99.90
44435;DHT22;30138;20.964;105.830;2023-05-10T20:46:34;29.00;99.90
44435;DHT22;30138;20.964;105.830;2023-05-10T20:51:40;29.00;99.90
44435;DHT22;30138;20.964;105.830;2023-05-10T20:56:50;29.00;99.90
44435;DHT22;30138;20.964;105.830;2023-05-10T21:02:16;29.00;99.90
44435;DHT22;30138;20.964;105.830;2023-05-10T21:07:26;29.00;99.90
44435;DHT22;30138;20.964;105.830;2023-05-10T21:12:36;28.90;99.90
44435;DHT22;30138;20.964;105.830;2023-05-10T21:17:43;28.90;99.90
44435;DHT22;30138;20.964;105.830;2023-05-10T21:22:51;29.00;99.90
44435;DHT22;30138;20.964;105.830;2023-05-10T21:28:00;29.00;99.90
44435;DHT22;30138;20.964;105.830;2023-05-10T21:33:07;28.90;99.90
44435;DHT22;30138;20.964;105.830;2023-05-10T21:38:15;28.90;99.90
44435;DHT22;30138;20.964;105.830;2023-05-10T21:43:24;28.90;99.90
44435;DHT22;30138;20.964;105.830;2023-05-10T21:48:30;28.90;99.90
44435;DHT22;30138;20.964;105.830;2023-05-10T21:53:37;28.90;99.90
44435;DHT22;30138;20.964;105.830;2023-05-10T21:58:45;28.90;99.90
44435;DHT22;30138;20.964;105.830;2023-05-10T22:03:52;28.90;99.90
44435;DHT22;30138;20.964;105.830;2023-05-10T22:08:59;28.80;99.90
44435;DHT22;30138;20.964;105.830;2023-05-10T22:14:08;28.90;99.90
44435;DHT22;30138;20.964;105.830;2023-05-10T22:19:14;28.80;99.90
44435;DHT22;30138;20.964;105.830;2023-05-10T22:24:22;28.80;99.90
44435;DHT22;30138;20.964;105.830;2023-05-10T22:29:30;28.80;99.90
44435;DHT22;30138;20.964;105.830;2023-05-10T22:34:37;28.80;99.90
44435;DHT22;30138;20.964;105.830;2023-05-10T22:39:45;28.80;99.90
44435;DHT22;30138;20.964;105.830;2023-05-10T22:44:53;28.80;99.90
44435;DHT22;30138;20.964;105.830;2023-05-10T22:50:00;28.80;99.90
44435;DHT22;30138;20.964;105.830;2023-05-10T22:55:08;28.80;99.90
44435;DHT22;30138;20.964;105.830;2023-05-10T23:00:17;28.80;99.90
44435;DHT22;30138;20.964;105.830;2023-05-10T23:05:24;28.80;99.90
44435;DHT22;30138;20.964;105.830;2023-05-10T23:10:31;28.80;99.90
44435;DHT22;30138;20.964;105.830;2023-05-10T23:15:41;28.80;99.90
44435;DHT22;30138;20.964;105.830;2023-05-10T23:20:48;28.80;99.90
44435;DHT22;30138;20.964;105.830;2023-05-10T23:25:56;28.80;99.90
44435;DHT22;30138;20.964;105.830;2023-05-10T23:31:07;28.80;99.90
44435;DHT22;30138;20.964;105.830;2023-05-10T23:36:14;28.80;99.90
44435;DHT22;30138;20.964;105.830;2023-05-10T23:41:21;28.80;99.90
44435;DHT22;30138;20.964;105.830;2023-05-10T23:46:30;28.80;99.90
44435;DHT22;30138;20.964;105.830;2023-05-10T23:51:36;28.80;99.90
44435;DHT22;30138;20.964;105.830;2023-05-10T23:56:43;28.80;99.90
